sensor_id;sensor_type;location;lat;lon;timestamp;P1;durP1;ratioP1;P2;durP2;ratioP2
78820;SDS011;68171;13.882;99.692;2024-03-17T00:00:26;24.98;;;17.50;;
78820;SDS011;68171;13.882;99.692;2024-03-17T00:01:31;25.15;;;17.75;;
78820;SDS011;68171;13.882;99.692;2024-03-17T00:02:35;26.35;;;16.88;;
78820;SDS011;68171;13.882;99.692;2024-03-17T00:03:39;29.13;;;18.53;;
78820;SDS011;68171;13.882;99.692;2024-03-17T00:04:42;32.17;;;20.30;;
78820;SDS011;68171;13.882;99.692;2024-03-17T00:05:46;31.88;;;20.95;;
78820;SDS011;68171;13.882;99.692;2024-03-17T00:06:50;31.77;;;19.95;;
78820;SDS011;68171;13.882;99.692;2024-03-17T00:07:54;27.73;;;19.05;;
78820;SDS011;68171;13.882;99.692;2024-03-17T00:08:57;40.92;;;22.30;;
78820;SDS011;68171;13.882;99.692;2024-03-17T00:10:02;36.33;;;20.33;;
78820;SDS011;68171;13.882;99.692;2024-03-17T00:11:08;34.78;;;20.15;;
78820;SDS011;68171;13.882;99.692;2024-03-17T00:12:12;28.90;;;21.38;;
78820;SDS011;68171;13.882;99.692;2024-03-17T00:13:15;39.78;;;22.17;;
78820;SDS011;68171;13.882;99.692;2024-03-17T00:14:20;37.37;;;21.93;;
78820;SDS011;68171;13.882;99.692;2024-03-17T00:15:25;34.50;;;20.38;;
78820;SDS011;68171;13.882;99.692;2024-03-17T00:16:29;29.15;;;20.00;;
78820;SDS011;68171;13.882;99.692;2024-03-17T00:17:34;32.13;;;20.33;;
78820;SDS011;68171;13.882;99.692;2024-03-17T00:18:38;32.33;;;20.83;;
78820;SDS011;68171;13.882;99.692;2024-03-17T00:19:42;32.50;;;20.60;;
78820;SDS011;68171;13.882;99.692;2024-03-17T00:20:45;32.80;;;19.63;;
78820;SDS011;68171;13.882;99.692;2024-03-17T00:21:50;34.70;;;21.35;;
78820;SDS011;68171;13.882;99.692;2024-03-17T00:22:54;34.35;;;21.77;;
78820;SDS011;68171;13.882;99.692;2024-03-17T00:23:57;30.88;;;19.85;;
78820;SDS011;68171;13.882;99.692;2024-03-17T00:25:01;34.33;;;19.90;;
78820;SDS011;68171;13.882;99.692;2024-03-17T00:26:06;31.80;;;19.10;;
78820;SDS011;68171;13.882;99.692;2024-03-17T00:27:10;39.03;;;20.35;;
78820;SDS011;68171;13.882;99.692;2024-03-17T00:28:14;31.42;;;20.80;;
78820;SDS011;68171;13.882;99.692;2024-03-17T00:29:18;32.72;;;20.55;;
78820;SDS011;68171;13.882;99.692;2024-03-17T00:30:24;56.88;;;32.50;;
78820;SDS011;68171;13.882;99.692;2024-03-17T00:31:27;136.45;;;79.47;;
78820;SDS011;68171;13.882;99.692;2024-03-17T00:32:30;65.90;;;36.85;;
78820;SDS011;68171;13.882;99.692;2024-03-17T00:33:35;64.00;;;35.70;;
78820;SDS011;68171;13.882;99.692;2024-03-17T00:34:39;38.75;;;25.30;;
78820;SDS011;68171;13.882;99.692;2024-03-17T00:35:42;34.13;;;21.67;;
78820;SDS011;68171;13.882;99.692;2024-03-17T00:36:45;44.30;;;22.45;;
78820;SDS011;68171;13.882;99.692;2024-03-17T00:37:50;40.33;;;24.90;;
78820;SDS011;68171;13.882;99.692;2024-03-17T00:38:55;49.60;;;32.75;;
78820;SDS011;68171;13.882;99.692;2024-03-17T00:39:58;57.30;;;38.58;;
78820;SDS011;68171;13.882;99.692;2024-03-17T00:41:02;42.33;;;28.92;;
78820;SDS011;68171;13.882;99.692;2024-03-17T00:42:08;58.15;;;36.72;;
78820;SDS011;68171;13.882;99.692;2024-03-17T00:43:11;106.30;;;81.68;;
78820;SDS011;68171;13.882;99.692;2024-03-17T00:44:14;70.45;;;49.65;;
78820;SDS011;68171;13.882;99.692;2024-03-17T00:45:19;51.10;;;36.83;;
78820;SDS011;68171;13.882;99.692;2024-03-17T00:46:24;50.47;;;34.33;;
78820;SDS011;68171;13.882;99.692;2024-03-17T00:47:28;86.10;;;62.90;;
78820;SDS011;68171;13.882;99.692;2024-03-17T00:48:31;91.45;;;72.07;;
78820;SDS011;68171;13.882;99.692;2024-03-17T00:49:36;122.63;;;96.65;;
78820;SDS011;68171;13.882;99.692;2024-03-17T00:50:40;157.57;;;112.70;;
78820;SDS011;68171;13.882;99.692;2024-03-17T00:51:43;174.35;;;127.10;;
78820;SDS011;68171;13.882;99.692;2024-03-17T00:52:49;155.30;;;112.78;;
78820;SDS011;68171;13.882;99.692;2024-03-17T00:53:52;150.25;;;106.25;;
78820;SDS011;68171;13.882;99.692;2024-03-17T00:54:58;130.80;;;96.50;;
78820;SDS011;68171;13.882;99.692;2024-03-17T00:56:03;133.73;;;86.72;;
78820;SDS011;68171;13.882;99.692;2024-03-17T00:57:08;65.17;;;43.60;;
78820;SDS011;68171;13.882;99.692;2024-03-17T00:58:11;70.65;;;46.70;;
78820;SDS011;68171;13.882;99.692;2024-03-17T00:59:16;56.10;;;37.47;;
78820;SDS011;68171;13.882;99.692;2024-03-17T01:00:19;49.15;;;32.35;;
78820;SDS011;68171;13.882;99.692;2024-03-17T01:01:25;54.65;;;35.75;;
78820;SDS011;68171;13.882;99.692;2024-03-17T01:02:29;55.13;;;34.50;;
78820;SDS011;68171;13.882;99.692;2024-03-17T01:03:33;54.53;;;33.35;;
78820;SDS011;68171;13.882;99.692;2024-03-17T01:04:36;67.80;;;37.67;;
78820;SDS011;68171;13.882;99.692;2024-03-17T01:05:41;55.38;;;36.25;;
78820;SDS011;68171;13.882;99.692;2024-03-17T01:06:46;59.97;;;33.85;;
78820;SDS011;68171;13.882;99.692;2024-03-17T01:07:49;56.43;;;31.03;;
78820;SDS011;68171;13.882;99.692;2024-03-17T01:08:54;50.75;;;31.38;;
78820;SDS011;68171;13.882;99.692;2024-03-17T01:09:58;55.38;;;31.45;;
78820;SDS011;68171;13.882;99.692;2024-03-17T01:11:01;47.13;;;31.00;;
78820;SDS011;68171;13.882;99.692;2024-03-17T01:12:10;46.20;;;30.65;;
78820;SDS011;68171;13.882;99.692;2024-03-17T01:13:13;45.60;;;29.58;;
78820;SDS011;68171;13.882;99.692;2024-03-17T01:14:17;44.70;;;30.75;;
78820;SDS011;68171;13.882;99.692;2024-03-17T01:15:20;50.80;;;33.25;;
78820;SDS011;68171;13.882;99.692;2024-03-17T01:16:27;48.35;;;33.72;;
78820;SDS011;68171;13.882;99.692;2024-03-17T01:17:30;51.08;;;36.25;;
78820;SDS011;68171;13.882;99.692;2024-03-17T01:18:34;53.47;;;37.53;;
78820;SDS011;68171;13.882;99.692;2024-03-17T01:19:41;49.90;;;36.20;;
78820;SDS011;68171;13.882;99.692;2024-03-17T01:20:44;44.60;;;29.30;;
78820;SDS011;68171;13.882;99.692;2024-03-17T01:21:48;41.35;;;25.10;;
78820;SDS011;68171;13.882;99.692;2024-03-17T01:22:53;37.80;;;23.15;;
78820;SDS011;68171;13.882;99.692;2024-03-17T01:23:56;49.17;;;22.83;;
78820;SDS011;68171;13.882;99.692;2024-03-17T01:24:59;38.38;;;22.60;;
78820;SDS011;68171;13.882;99.692;2024-03-17T01:26:04;30.95;;;20.58;;
78820;SDS011;68171;13.882;99.692;2024-03-17T01:27:08;30.58;;;21.42;;
78820;SDS011;68171;13.882;99.692;2024-03-17T01:28:15;30.70;;;19.90;;
78820;SDS011;68171;13.882;99.692;2024-03-17T01:29:20;30.27;;;20.10;;
78820;SDS011;68171;13.882;99.692;2024-03-17T01:30:24;44.70;;;20.90;;
78820;SDS011;68171;13.882;99.692;2024-03-17T01:31:29;30.58;;;20.25;;
78820;SDS011;68171;13.882;99.692;2024-03-17T01:32:34;34.58;;;21.35;;
78820;SDS011;68171;13.882;99.692;2024-03-17T01:33:37;29.58;;;19.90;;
78820;SDS011;68171;13.882;99.692;2024-03-17T01:34:41;27.80;;;18.95;;
78820;SDS011;68171;13.882;99.692;2024-03-17T01:35:46;28.08;;;18.40;;
78820;SDS011;68171;13.882;99.692;2024-03-17T01:36:49;32.15;;;18.63;;
78820;SDS011;68171;13.882;99.692;2024-03-17T01:37:53;29.90;;;20.40;;
78820;SDS011;68171;13.882;99.692;2024-03-17T01:38:56;28.50;;;19.88;;
78820;SDS011;68171;13.882;99.692;2024-03-17T01:40:01;40.57;;;19.97;;
78820;SDS011;68171;13.882;99.692;2024-03-17T01:41:06;29.52;;;19.73;;
78820;SDS011;68171;13.882;99.692;2024-03-17T01:42:09;30.05;;;18.65;;
78820;SDS011;68171;13.882;99.692;2024-03-17T01:43:14;29.83;;;18.95;;
78820;SDS011;68171;13.882;99.692;2024-03-17T01:44:24;32.83;;;20.63;;
78820;SDS011;68171;13.882;99.692;2024-03-17T01:45:28;32.38;;;20.25;;
78820;SDS011;68171;13.882;99.692;2024-03-17T01:46:34;28.08;;;18.00;;
78820;SDS011;68171;13.882;99.692;2024-03-17T01:47:38;32.42;;;18.27;;
78820;SDS011;68171;13.882;99.692;2024-03-17T01:48:43;25.90;;;17.02;;
78820;SDS011;68171;13.882;99.692;2024-03-17T01:49:47;28.83;;;16.85;;
78820;SDS011;68171;13.882;99.692;2024-03-17T01:50:52;27.77;;;18.37;;
78820;SDS011;68171;13.882;99.692;2024-03-17T01:51:58;24.50;;;16.48;;
78820;SDS011;68171;13.882;99.692;2024-03-17T01:53:02;28.10;;;17.13;;
78820;SDS011;68171;13.882;99.692;2024-03-17T01:54:06;30.20;;;18.00;;
78820;SDS011;68171;13.882;99.692;2024-03-17T01:55:11;30.15;;;16.50;;
78820;SDS011;68171;13.882;99.692;2024-03-17T01:56:15;25.35;;;17.88;;
78820;SDS011;68171;13.882;99.692;2024-03-17T01:57:19;24.17;;;17.05;;
78820;SDS011;68171;13.882;99.692;2024-03-17T01:58:22;23.95;;;16.55;;
78820;SDS011;68171;13.882;99.692;2024-03-17T01:59:29;19.38;;;14.82;;
78820;SDS011;68171;13.882;99.692;2024-03-17T02:00:33;23.75;;;16.38;;
78820;SDS011;68171;13.882;99.692;2024-03-17T02:01:39;20.27;;;15.00;;
78820;SDS011;68171;13.882;99.692;2024-03-17T02:02:43;23.10;;;15.63;;
78820;SDS011;68171;13.882;99.692;2024-03-17T02:03:47;26.63;;;16.67;;
78820;SDS011;68171;13.882;99.692;2024-03-17T02:04:51;21.15;;;15.55;;
78820;SDS011;68171;13.882;99.692;2024-03-17T02:05:54;22.23;;;15.95;;
78820;SDS011;68171;13.882;99.692;2024-03-17T02:06:58;24.10;;;15.80;;
78820;SDS011;68171;13.882;99.692;2024-03-17T02:08:03;21.40;;;15.27;;
78820;SDS011;68171;13.882;99.692;2024-03-17T02:09:07;21.77;;;15.27;;
78820;SDS011;68171;13.882;99.692;2024-03-17T02:10:11;23.63;;;16.92;;
78820;SDS011;68171;13.882;99.692;2024-03-17T02:11:23;26.27;;;16.23;;
78820;SDS011;68171;13.882;99.692;2024-03-17T02:12:28;23.13;;;15.63;;
78820;SDS011;68171;13.882;99.692;2024-03-17T02:13:32;26.30;;;16.25;;
78820;SDS011;68171;13.882;99.692;2024-03-17T02:14:38;27.45;;;16.70;;
78820;SDS011;68171;13.882;99.692;2024-03-17T02:15:41;26.00;;;16.15;;
78820;SDS011;68171;13.882;99.692;2024-03-17T02:16:46;21.23;;;16.05;;
78820;SDS011;68171;13.882;99.692;2024-03-17T02:17:51;23.63;;;15.68;;
78820;SDS011;68171;13.882;99.692;2024-03-17T02:18:55;29.30;;;15.90;;
78820;SDS011;68171;13.882;99.692;2024-03-17T02:19:59;23.67;;;15.80;;
78820;SDS011;68171;13.882;99.692;2024-03-17T02:21:09;24.52;;;17.38;;
78820;SDS011;68171;13.882;99.692;2024-03-17T02:22:15;21.75;;;16.42;;
78820;SDS011;68171;13.882;99.692;2024-03-17T02:23:18;24.13;;;15.70;;
78820;SDS011;68171;13.882;99.692;2024-03-17T02:24:23;19.35;;;15.52;;
78820;SDS011;68171;13.882;99.692;2024-03-17T02:25:27;23.08;;;15.77;;
78820;SDS011;68171;13.882;99.692;2024-03-17T02:26:30;20.85;;;16.25;;
78820;SDS011;68171;13.882;99.692;2024-03-17T02:27:36;21.98;;;15.60;;
78820;SDS011;68171;13.882;99.692;2024-03-17T02:28:40;22.80;;;15.02;;
78820;SDS011;68171;13.882;99.692;2024-03-17T02:29:44;21.75;;;15.48;;
78820;SDS011;68171;13.882;99.692;2024-03-17T02:30:49;21.33;;;14.55;;
78820;SDS011;68171;13.882;99.692;2024-03-17T02:31:52;22.50;;;15.75;;
78820;SDS011;68171;13.882;99.692;2024-03-17T02:32:55;25.55;;;15.75;;
78820;SDS011;68171;13.882;99.692;2024-03-17T02:33:59;26.57;;;16.10;;
78820;SDS011;68171;13.882;99.692;2024-03-17T02:35:04;20.88;;;14.90;;
78820;SDS011;68171;13.882;99.692;2024-03-17T02:36:08;24.58;;;15.43;;
78820;SDS011;68171;13.882;99.692;2024-03-17T02:37:13;20.27;;;15.30;;
78820;SDS011;68171;13.882;99.692;2024-03-17T02:38:19;25.38;;;15.23;;
78820;SDS011;68171;13.882;99.692;2024-03-17T02:39:37;19.48;;;14.32;;
78820;SDS011;68171;13.882;99.692;2024-03-17T02:40:41;21.90;;;15.45;;
78820;SDS011;68171;13.882;99.692;2024-03-17T02:41:44;20.38;;;15.27;;
78820;SDS011;68171;13.882;99.692;2024-03-17T02:42:49;19.23;;;15.02;;
78820;SDS011;68171;13.882;99.692;2024-03-17T02:43:53;18.17;;;14.90;;
78820;SDS011;68171;13.882;99.692;2024-03-17T02:44:57;21.63;;;14.60;;
78820;SDS011;68171;13.882;99.692;2024-03-17T02:46:01;25.63;;;14.98;;
78820;SDS011;68171;13.882;99.692;2024-03-17T02:47:07;20.48;;;15.43;;
78820;SDS011;68171;13.882;99.692;2024-03-17T02:48:10;23.60;;;15.30;;
78820;SDS011;68171;13.882;99.692;2024-03-17T02:49:15;19.80;;;14.02;;
78820;SDS011;68171;13.882;99.692;2024-03-17T02:50:19;18.30;;;15.63;;
78820;SDS011;68171;13.882;99.692;2024-03-17T02:51:24;20.35;;;14.43;;
78820;SDS011;68171;13.882;99.692;2024-03-17T02:52:29;21.83;;;14.65;;
78820;SDS011;68171;13.882;99.692;2024-03-17T02:53:33;21.15;;;15.63;;
78820;SDS011;68171;13.882;99.692;2024-03-17T02:54:38;20.75;;;15.57;;
78820;SDS011;68171;13.882;99.692;2024-03-17T02:55:41;23.57;;;15.43;;
78820;SDS011;68171;13.882;99.692;2024-03-17T02:56:47;20.48;;;14.60;;
78820;SDS011;68171;13.882;99.692;2024-03-17T02:57:51;22.42;;;16.50;;
78820;SDS011;68171;13.882;99.692;2024-03-17T02:58:55;19.55;;;15.50;;
78820;SDS011;68171;13.882;99.692;2024-03-17T02:59:59;20.65;;;15.77;;
78820;SDS011;68171;13.882;99.692;2024-03-17T03:01:05;22.30;;;16.80;;
78820;SDS011;68171;13.882;99.692;2024-03-17T03:02:10;20.42;;;14.95;;
78820;SDS011;68171;13.882;99.692;2024-03-17T03:03:13;24.83;;;16.83;;
78820;SDS011;68171;13.882;99.692;2024-03-17T03:04:18;21.13;;;15.82;;
78820;SDS011;68171;13.882;99.692;2024-03-17T03:05:21;25.60;;;16.20;;
78820;SDS011;68171;13.882;99.692;2024-03-17T03:06:26;28.07;;;15.93;;
78820;SDS011;68171;13.882;99.692;2024-03-17T03:07:32;17.95;;;14.73;;
78820;SDS011;68171;13.882;99.692;2024-03-17T03:08:37;21.30;;;15.38;;
78820;SDS011;68171;13.882;99.692;2024-03-17T03:09:41;19.25;;;15.15;;
78820;SDS011;68171;13.882;99.692;2024-03-17T03:10:46;21.67;;;16.08;;
78820;SDS011;68171;13.882;99.692;2024-03-17T03:11:50;20.80;;;15.77;;
78820;SDS011;68171;13.882;99.692;2024-03-17T03:12:55;23.05;;;15.05;;
78820;SDS011;68171;13.882;99.692;2024-03-17T03:13:58;20.85;;;16.00;;
78820;SDS011;68171;13.882;99.692;2024-03-17T03:15:04;20.30;;;15.35;;
78820;SDS011;68171;13.882;99.692;2024-03-17T03:16:08;22.42;;;15.65;;
78820;SDS011;68171;13.882;99.692;2024-03-17T03:17:13;23.00;;;15.73;;
78820;SDS011;68171;13.882;99.692;2024-03-17T03:18:17;24.42;;;16.08;;
78820;SDS011;68171;13.882;99.692;2024-03-17T03:19:22;21.27;;;15.55;;
78820;SDS011;68171;13.882;99.692;2024-03-17T03:20:25;21.08;;;15.70;;
78820;SDS011;68171;13.882;99.692;2024-03-17T03:21:30;24.95;;;16.58;;
78820;SDS011;68171;13.882;99.692;2024-03-17T03:22:36;21.75;;;15.05;;
78820;SDS011;68171;13.882;99.692;2024-03-17T03:23:41;20.88;;;16.15;;
78820;SDS011;68171;13.882;99.692;2024-03-17T03:24:44;22.27;;;15.48;;
78820;SDS011;68171;13.882;99.692;2024-03-17T03:25:54;22.90;;;14.63;;
78820;SDS011;68171;13.882;99.692;2024-03-17T03:26:58;20.85;;;15.32;;
78820;SDS011;68171;13.882;99.692;2024-03-17T03:28:03;19.07;;;14.77;;
78820;SDS011;68171;13.882;99.692;2024-03-17T03:29:07;22.15;;;14.70;;
78820;SDS011;68171;13.882;99.692;2024-03-17T03:30:12;16.92;;;13.32;;
78820;SDS011;68171;13.882;99.692;2024-03-17T03:31:16;17.55;;;14.13;;
78820;SDS011;68171;13.882;99.692;2024-03-17T03:32:21;20.17;;;14.18;;
78820;SDS011;68171;13.882;99.692;2024-03-17T03:33:25;21.23;;;14.75;;
78820;SDS011;68171;13.882;99.692;2024-03-17T03:34:29;19.35;;;14.23;;
78820;SDS011;68171;13.882;99.692;2024-03-17T03:35:34;16.73;;;12.73;;
78820;SDS011;68171;13.882;99.692;2024-03-17T03:36:38;18.50;;;13.55;;
78820;SDS011;68171;13.882;99.692;2024-03-17T03:37:45;18.17;;;12.68;;
78820;SDS011;68171;13.882;99.692;2024-03-17T03:38:49;17.97;;;14.10;;
78820;SDS011;68171;13.882;99.692;2024-03-17T03:39:52;18.92;;;12.27;;
78820;SDS011;68171;13.882;99.692;2024-03-17T03:40:57;19.88;;;13.35;;
78820;SDS011;68171;13.882;99.692;2024-03-17T03:42:00;16.25;;;12.45;;
78820;SDS011;68171;13.882;99.692;2024-03-17T03:43:05;17.70;;;12.35;;
78820;SDS011;68171;13.882;99.692;2024-03-17T03:44:09;18.80;;;12.07;;
78820;SDS011;68171;13.882;99.692;2024-03-17T03:45:14;15.85;;;11.85;;
78820;SDS011;68171;13.882;99.692;2024-03-17T03:46:17;17.30;;;11.35;;
78820;SDS011;68171;13.882;99.692;2024-03-17T03:47:22;16.38;;;11.55;;
78820;SDS011;68171;13.882;99.692;2024-03-17T03:48:25;16.35;;;11.88;;
78820;SDS011;68171;13.882;99.692;2024-03-17T03:49:29;13.47;;;9.63;;
78820;SDS011;68171;13.882;99.692;2024-03-17T03:50:35;15.27;;;10.57;;
78820;SDS011;68171;13.882;99.692;2024-03-17T03:51:39;16.02;;;11.73;;
78820;SDS011;68171;13.882;99.692;2024-03-17T03:52:46;16.23;;;12.30;;
78820;SDS011;68171;13.882;99.692;2024-03-17T03:53:50;15.23;;;10.48;;
78820;SDS011;68171;13.882;99.692;2024-03-17T03:54:54;16.88;;;10.93;;
78820;SDS011;68171;13.882;99.692;2024-03-17T03:55:59;15.80;;;11.30;;
78820;SDS011;68171;13.882;99.692;2024-03-17T03:57:03;15.18;;;11.25;;
78820;SDS011;68171;13.882;99.692;2024-03-17T03:58:08;14.75;;;10.77;;
78820;SDS011;68171;13.882;99.692;2024-03-17T03:59:11;15.10;;;10.75;;
78820;SDS011;68171;13.882;99.692;2024-03-17T04:00:16;17.10;;;11.40;;
78820;SDS011;68171;13.882;99.692;2024-03-17T04:01:22;16.00;;;11.07;;
78820;SDS011;68171;13.882;99.692;2024-03-17T04:02:27;14.38;;;10.15;;
78820;SDS011;68171;13.882;99.692;2024-03-17T04:03:32;16.80;;;10.32;;
78820;SDS011;68171;13.882;99.692;2024-03-17T04:04:38;14.43;;;10.35;;
78820;SDS011;68171;13.882;99.692;2024-03-17T04:05:41;15.57;;;10.90;;
78820;SDS011;68171;13.882;99.692;2024-03-17T04:06:46;16.48;;;10.55;;
78820;SDS011;68171;13.882;99.692;2024-03-17T04:07:51;15.60;;;11.23;;
78820;SDS011;68171;13.882;99.692;2024-03-17T04:08:56;16.38;;;11.07;;
78820;SDS011;68171;13.882;99.692;2024-03-17T04:09:59;12.35;;;9.80;;
78820;SDS011;68171;13.882;99.692;2024-03-17T04:11:04;14.60;;;11.23;;
78820;SDS011;68171;13.882;99.692;2024-03-17T04:12:09;16.90;;;11.03;;
78820;SDS011;68171;13.882;99.692;2024-03-17T04:13:14;15.77;;;10.88;;
78820;SDS011;68171;13.882;99.692;2024-03-17T04:14:17;16.63;;;11.55;;
78820;SDS011;68171;13.882;99.692;2024-03-17T04:15:22;15.45;;;11.30;;
78820;SDS011;68171;13.882;99.692;2024-03-17T04:16:25;11.93;;;10.10;;
78820;SDS011;68171;13.882;99.692;2024-03-17T04:17:33;14.27;;;10.32;;
78820;SDS011;68171;13.882;99.692;2024-03-17T04:18:37;17.83;;;11.38;;
78820;SDS011;68171;13.882;99.692;2024-03-17T04:19:43;13.63;;;10.93;;
78820;SDS011;68171;13.882;99.692;2024-03-17T04:20:48;15.93;;;11.57;;
78820;SDS011;68171;13.882;99.692;2024-03-17T04:21:54;16.57;;;11.23;;
78820;SDS011;68171;13.882;99.692;2024-03-17T04:22:59;14.30;;;11.17;;
78820;SDS011;68171;13.882;99.692;2024-03-17T04:24:05;15.52;;;11.32;;
78820;SDS011;68171;13.882;99.692;2024-03-17T04:25:08;15.52;;;11.48;;
78820;SDS011;68171;13.882;99.692;2024-03-17T04:26:14;14.93;;;11.68;;
78820;SDS011;68171;13.882;99.692;2024-03-17T04:27:18;14.27;;;11.15;;
78820;SDS011;68171;13.882;99.692;2024-03-17T04:28:23;24.48;;;12.05;;
78820;SDS011;68171;13.882;99.692;2024-03-17T04:29:26;20.50;;;11.77;;
78820;SDS011;68171;13.882;99.692;2024-03-17T04:30:30;16.38;;;11.80;;
78820;SDS011;68171;13.882;99.692;2024-03-17T04:31:35;14.75;;;10.05;;
78820;SDS011;68171;13.882;99.692;2024-03-17T04:32:39;16.93;;;11.37;;
78820;SDS011;68171;13.882;99.692;2024-03-17T04:33:44;15.00;;;11.40;;
78820;SDS011;68171;13.882;99.692;2024-03-17T04:34:47;15.70;;;10.48;;
78820;SDS011;68171;13.882;99.692;2024-03-17T04:35:51;14.00;;;10.77;;
78820;SDS011;68171;13.882;99.692;2024-03-17T04:36:56;15.50;;;10.75;;
78820;SDS011;68171;13.882;99.692;2024-03-17T04:38:01;14.07;;;10.65;;
78820;SDS011;68171;13.882;99.692;2024-03-17T04:39:06;13.10;;;10.95;;
78820;SDS011;68171;13.882;99.692;2024-03-17T04:40:10;14.85;;;11.13;;
78820;SDS011;68171;13.882;99.692;2024-03-17T04:41:15;18.58;;;11.38;;
78820;SDS011;68171;13.882;99.692;2024-03-17T04:42:19;15.55;;;11.27;;
78820;SDS011;68171;13.882;99.692;2024-03-17T04:43:23;15.67;;;11.07;;
78820;SDS011;68171;13.882;99.692;2024-03-17T04:44:27;14.57;;;11.27;;
78820;SDS011;68171;13.882;99.692;2024-03-17T04:45:32;13.48;;;11.05;;
78820;SDS011;68171;13.882;99.692;2024-03-17T04:46:36;15.38;;;10.55;;
78820;SDS011;68171;13.882;99.692;2024-03-17T04:47:41;16.60;;;12.00;;
78820;SDS011;68171;13.882;99.692;2024-03-17T04:48:44;15.52;;;12.00;;
78820;SDS011;68171;13.882;99.692;2024-03-17T04:49:49;16.73;;;11.68;;
78820;SDS011;68171;13.882;99.692;2024-03-17T04:50:52;15.63;;;11.50;;
78820;SDS011;68171;13.882;99.692;2024-03-17T04:51:57;15.80;;;11.18;;
78820;SDS011;68171;13.882;99.692;2024-03-17T04:53:02;16.35;;;11.68;;
78820;SDS011;68171;13.882;99.692;2024-03-17T04:54:07;22.60;;;11.10;;
78820;SDS011;68171;13.882;99.692;2024-03-17T04:55:11;16.77;;;11.33;;
78820;SDS011;68171;13.882;99.692;2024-03-17T04:56:15;15.43;;;10.18;;
78820;SDS011;68171;13.882;99.692;2024-03-17T04:57:19;13.50;;;11.07;;
78820;SDS011;68171;13.882;99.692;2024-03-17T04:58:24;17.13;;;11.40;;
78820;SDS011;68171;13.882;99.692;2024-03-17T04:59:27;12.82;;;10.32;;
78820;SDS011;68171;13.882;99.692;2024-03-17T05:00:32;17.08;;;11.55;;
78820;SDS011;68171;13.882;99.692;2024-03-17T05:01:36;14.10;;;10.70;;
78820;SDS011;68171;13.882;99.692;2024-03-17T05:02:40;14.73;;;11.18;;
78820;SDS011;68171;13.882;99.692;2024-03-17T05:03:44;14.98;;;12.20;;
78820;SDS011;68171;13.882;99.692;2024-03-17T05:04:48;16.37;;;10.53;;
78820;SDS011;68171;13.882;99.692;2024-03-17T05:05:58;16.63;;;11.77;;
78820;SDS011;68171;13.882;99.692;2024-03-17T05:07:06;12.70;;;10.57;;
78820;SDS011;68171;13.882;99.692;2024-03-17T05:08:12;18.50;;;10.73;;
78820;SDS011;68171;13.882;99.692;2024-03-17T05:09:17;17.33;;;11.13;;
78820;SDS011;68171;13.882;99.692;2024-03-17T05:10:20;15.32;;;10.90;;
78820;SDS011;68171;13.882;99.692;2024-03-17T05:11:25;15.80;;;11.60;;
78820;SDS011;68171;13.882;99.692;2024-03-17T05:12:29;12.65;;;9.98;;
78820;SDS011;68171;13.882;99.692;2024-03-17T05:13:34;14.93;;;11.45;;
78820;SDS011;68171;13.882;99.692;2024-03-17T05:14:39;16.60;;;11.38;;
78820;SDS011;68171;13.882;99.692;2024-03-17T05:15:44;15.40;;;10.53;;
78820;SDS011;68171;13.882;99.692;2024-03-17T05:16:48;16.87;;;10.83;;
78820;SDS011;68171;13.882;99.692;2024-03-17T05:17:53;15.65;;;10.90;;
78820;SDS011;68171;13.882;99.692;2024-03-17T05:18:57;14.55;;;9.77;;
78820;SDS011;68171;13.882;99.692;2024-03-17T05:20:01;15.40;;;11.50;;
78820;SDS011;68171;13.882;99.692;2024-03-17T05:21:08;13.65;;;9.38;;
78820;SDS011;68171;13.882;99.692;2024-03-17T05:22:12;15.18;;;9.82;;
78820;SDS011;68171;13.882;99.692;2024-03-17T05:23:18;12.50;;;9.43;;
78820;SDS011;68171;13.882;99.692;2024-03-17T05:24:21;11.80;;;9.85;;
78820;SDS011;68171;13.882;99.692;2024-03-17T05:25:26;12.40;;;8.95;;
78820;SDS011;68171;13.882;99.692;2024-03-17T05:26:29;12.43;;;8.87;;
78820;SDS011;68171;13.882;99.692;2024-03-17T05:27:34;12.57;;;9.30;;
78820;SDS011;68171;13.882;99.692;2024-03-17T05:28:38;15.93;;;9.38;;
78820;SDS011;68171;13.882;99.692;2024-03-17T05:29:42;12.27;;;8.98;;
78820;SDS011;68171;13.882;99.692;2024-03-17T05:30:46;14.88;;;9.23;;
78820;SDS011;68171;13.882;99.692;2024-03-17T05:31:50;13.40;;;9.43;;
78820;SDS011;68171;13.882;99.692;2024-03-17T05:32:54;13.45;;;8.98;;
78820;SDS011;68171;13.882;99.692;2024-03-17T05:33:58;13.00;;;9.18;;
78820;SDS011;68171;13.882;99.692;2024-03-17T05:35:01;11.45;;;8.77;;
78820;SDS011;68171;13.882;99.692;2024-03-17T05:36:06;12.98;;;8.60;;
78820;SDS011;68171;13.882;99.692;2024-03-17T05:37:10;13.03;;;9.00;;
78820;SDS011;68171;13.882;99.692;2024-03-17T05:38:13;13.77;;;8.93;;
78820;SDS011;68171;13.882;99.692;2024-03-17T05:39:20;11.57;;;8.40;;
78820;SDS011;68171;13.882;99.692;2024-03-17T05:40:24;13.75;;;9.15;;
78820;SDS011;68171;13.882;99.692;2024-03-17T05:41:29;12.82;;;8.85;;
78820;SDS011;68171;13.882;99.692;2024-03-17T05:42:32;11.40;;;8.88;;
78820;SDS011;68171;13.882;99.692;2024-03-17T05:43:37;16.83;;;8.23;;
78820;SDS011;68171;13.882;99.692;2024-03-17T05:44:41;10.85;;;9.00;;
78820;SDS011;68171;13.882;99.692;2024-03-17T05:45:54;12.93;;;9.00;;
78820;SDS011;68171;13.882;99.692;2024-03-17T05:47:00;15.32;;;8.40;;
78820;SDS011;68171;13.882;99.692;2024-03-17T05:48:06;11.47;;;8.53;;
78820;SDS011;68171;13.882;99.692;2024-03-17T05:49:11;11.80;;;8.43;;
78820;SDS011;68171;13.882;99.692;2024-03-17T05:50:16;11.18;;;7.97;;
78820;SDS011;68171;13.882;99.692;2024-03-17T05:51:19;11.60;;;8.18;;
78820;SDS011;68171;13.882;99.692;2024-03-17T05:52:24;13.48;;;7.80;;
78820;SDS011;68171;13.882;99.692;2024-03-17T05:53:27;10.88;;;7.75;;
78820;SDS011;68171;13.882;99.692;2024-03-17T05:54:35;9.30;;;7.30;;
78820;SDS011;68171;13.882;99.692;2024-03-17T05:55:39;10.38;;;7.72;;
78820;SDS011;68171;13.882;99.692;2024-03-17T05:56:44;12.38;;;7.28;;
78820;SDS011;68171;13.882;99.692;2024-03-17T05:57:49;10.55;;;7.30;;
78820;SDS011;68171;13.882;99.692;2024-03-17T05:58:52;11.83;;;7.27;;
78820;SDS011;68171;13.882;99.692;2024-03-17T05:59:57;12.00;;;7.40;;
78820;SDS011;68171;13.882;99.692;2024-03-17T06:01:01;10.52;;;7.75;;
78820;SDS011;68171;13.882;99.692;2024-03-17T06:02:05;10.77;;;7.18;;
78820;SDS011;68171;13.882;99.692;2024-03-17T06:03:11;10.50;;;8.27;;
78820;SDS011;68171;13.882;99.692;2024-03-17T06:04:15;20.90;;;7.57;;
78820;SDS011;68171;13.882;99.692;2024-03-17T06:05:20;9.70;;;7.28;;
78820;SDS011;68171;13.882;99.692;2024-03-17T06:06:23;12.23;;;7.57;;
78820;SDS011;68171;13.882;99.692;2024-03-17T06:07:28;11.18;;;7.57;;
78820;SDS011;68171;13.882;99.692;2024-03-17T06:08:32;9.27;;;6.70;;
78820;SDS011;68171;13.882;99.692;2024-03-17T06:09:38;11.70;;;7.93;;
78820;SDS011;68171;13.882;99.692;2024-03-17T06:10:42;12.50;;;7.40;;
78820;SDS011;68171;13.882;99.692;2024-03-17T06:11:48;8.85;;;7.10;;
78820;SDS011;68171;13.882;99.692;2024-03-17T06:12:52;10.88;;;7.28;;